createdAt,value
2023-06-11T00:01:15.684Z,19.49
2023-06-11T00:06:21.782Z,19.17
2023-06-11T00:11:25.184Z,19.07
2023-06-11T00:16:34.681Z,19.21
2023-06-11T00:21:44.966Z,19.38
2023-06-11T00:26:48.370Z,19.47
2023-06-11T00:31:53.057Z,19.43
2023-06-11T00:36:56.304Z,19.15
2023-06-11T00:42:00.958Z,19.19
2023-06-11T00:47:05.960Z,19.15
2023-06-11T00:52:14.939Z,18.91
2023-06-11T00:57:19.189Z,18.64
2023-06-11T01:02:31.884Z,18.46
2023-06-11T01:07:37.883Z,18.65
2023-06-11T01:12:41.101Z,18.90
2023-06-11T01:17:50.100Z,18.61
2023-06-11T01:23:19.089Z,18.42
2023-06-11T01:28:25.851Z,18.50
2023-06-11T01:33:29.065Z,18.40
2023-06-11T01:38:36.234Z,18.25
2023-06-11T01:49:01.956Z,18.70
2023-06-11T01:54:05.272Z,18.47
2023-06-11T01:59:09.878Z,18.44
2023-06-11T02:04:12.893Z,18.39
2023-06-11T02:09:16.285Z,18.46
2023-06-11T02:14:20.936Z,18.48
2023-06-11T02:19:23.889Z,18.62
2023-06-11T02:24:27.494Z,18.66
2023-06-11T02:29:32.091Z,18.62
2023-06-11T02:34:35.045Z,18.54
2023-06-11T02:39:38.238Z,18.39
2023-06-11T02:44:42.857Z,18.30
2023-06-11T02:49:46.339Z,18.24
2023-06-11T02:54:49.593Z,18.12
2023-06-11T02:59:54.164Z,18.16
2023-06-11T03:04:57.124Z,18.04
2023-06-11T03:10:00.394Z,17.92
2023-06-11T03:15:05.363Z,17.78
2023-06-11T03:20:09.588Z,17.69
2023-06-11T03:25:13.068Z,17.60
2023-06-11T03:30:17.936Z,17.48
2023-06-11T03:35:20.993Z,17.43
2023-06-11T03:40:24.385Z,17.32
2023-06-11T03:45:29.083Z,17.27
2023-06-11T03:50:32.156Z,17.24
2023-06-11T03:55:35.428Z,17.24
2023-06-11T04:00:40.116Z,17.20
2023-06-11T04:05:43.710Z,17.16
2023-06-11T04:10:46.988Z,17.16
2023-06-11T04:15:51.694Z,17.11
2023-06-11T04:20:54.693Z,17.11
2023-06-11T04:25:58.935Z,17.15
2023-06-11T04:31:03.710Z,17.13
2023-06-11T04:36:09.335Z,16.97
2023-06-11T04:41:13.238Z,16.98
2023-06-11T04:46:18.334Z,16.86
2023-06-11T04:51:22.060Z,16.80
2023-06-11T04:56:25.412Z,16.76
2023-06-11T05:01:33.882Z,16.79
2023-06-11T05:06:37.186Z,16.67
2023-06-11T05:11:40.917Z,16.68
2023-06-11T05:16:46.781Z,16.71
2023-06-11T05:21:50.121Z,16.66
2023-06-11T05:26:57.230Z,16.70
2023-06-11T05:32:02.037Z,16.63
2023-06-11T05:37:05.833Z,16.67
2023-06-11T05:42:10.251Z,16.65
2023-06-11T05:47:14.995Z,16.58
2023-06-11T05:52:17.987Z,16.58
2023-06-11T05:57:22.612Z,16.60
2023-06-11T06:02:30.754Z,16.66
2023-06-11T06:07:35.510Z,16.90
2023-06-11T06:12:38.986Z,17.11
2023-06-11T06:17:43.763Z,17.33
2023-06-11T06:22:46.817Z,17.40
2023-06-11T06:27:50.102Z,17.46
2023-06-11T06:32:57.736Z,17.71
2023-06-11T06:38:02.263Z,17.97
2023-06-11T06:43:05.704Z,17.91
2023-06-11T06:48:10.492Z,18.04
2023-06-11T06:53:13.858Z,18.24
2023-06-11T06:58:17.192Z,18.23
2023-06-11T07:03:22.584Z,18.36
2023-06-11T07:08:25.894Z,18.38
2023-06-11T07:13:29.216Z,18.57
2023-06-11T07:18:34.267Z,18.72
2023-06-11T07:23:37.552Z,18.78
2023-06-11T07:28:42.072Z,19.02
2023-06-11T07:33:46.795Z,19.11
2023-06-11T07:38:50.075Z,19.05
2023-06-11T07:49:15.310Z,19.32
2023-06-11T07:54:18.486Z,19.39
2023-06-11T07:59:22.722Z,19.47
2023-06-11T08:04:27.475Z,19.68
2023-06-11T08:09:31.152Z,19.98
2023-06-11T08:14:34.697Z,20.47
2023-06-11T08:19:39.356Z,20.68
2023-06-11T08:24:42.529Z,20.79
2023-06-11T08:29:45.689Z,21.17
2023-06-11T08:34:51.037Z,21.63
2023-06-11T08:39:54.313Z,21.81
2023-06-11T08:44:57.568Z,22.11
2023-06-11T08:50:03.747Z,22.35
2023-06-11T08:55:07.803Z,22.26
2023-06-11T09:00:13.930Z,22.17
2023-06-11T09:05:18.917Z,22.40
2023-06-11T09:10:22.656Z,22.67
2023-06-11T09:15:27.092Z,22.69
2023-06-11T09:20:33.799Z,22.96
2023-06-11T09:25:40.321Z,23.13
2023-06-11T09:30:43.616Z,23.38
2023-06-11T09:35:48.521Z,23.38
2023-06-11T09:40:52.960Z,23.49
2023-06-11T09:45:57.290Z,23.72
2023-06-11T09:51:04.106Z,23.87
2023-06-11T09:56:11.824Z,24.08
2023-06-11T10:01:15.786Z,24.28
2023-06-11T10:06:26.881Z,24.23
2023-06-11T10:11:39.780Z,24.15
2023-06-11T10:16:49.807Z,24.38
2023-06-11T10:21:56.889Z,24.37
2023-06-11T10:32:28.967Z,24.65
2023-06-11T10:37:36.750Z,24.59
2023-06-11T10:42:41.485Z,24.46
2023-06-11T10:47:46.104Z,24.61
2023-06-11T10:52:52.732Z,24.75
2023-06-11T10:57:56.537Z,24.69
2023-06-11T11:08:25.798Z,25.17
2023-06-11T11:13:31.247Z,25.14
2023-06-11T11:18:36.112Z,25.21
2023-06-11T11:23:40.962Z,25.22
2023-06-11T11:28:44.302Z,25.21
2023-06-11T11:33:48.137Z,25.19
2023-06-11T11:38:52.830Z,25.85
2023-06-11T11:43:56.099Z,25.98
2023-06-11T11:48:59.390Z,25.75
2023-06-11T11:54:04.666Z,25.98
2023-06-11T11:59:18.052Z,26.00
2023-06-11T12:04:21.363Z,26.61
2023-06-11T12:09:26.278Z,26.53
2023-06-11T12:14:29.571Z,26.39
2023-06-11T12:19:34.399Z,26.09
2023-06-11T12:24:39.221Z,25.37
2023-06-11T12:29:42.774Z,25.74
2023-06-11T12:34:46.053Z,26.05
2023-06-11T12:39:51.170Z,26.16
2023-06-11T12:44:55.871Z,26.52
2023-06-11T12:49:59.079Z,26.43
2023-06-11T12:55:03.747Z,26.76
2023-06-11T13:00:08.328Z,26.30
2023-06-11T13:05:11.959Z,26.04
2023-06-11T13:10:16.944Z,26.89
2023-06-11T13:15:20.423Z,26.28
2023-06-11T13:20:23.952Z,26.53
2023-06-11T13:25:28.910Z,26.90
2023-06-11T13:30:32.306Z,26.30
2023-06-11T13:35:35.653Z,26.26
2023-06-11T13:40:40.407Z,26.05
2023-06-11T13:45:46.167Z,26.09
2023-06-11T13:50:52.269Z,25.76
2023-06-11T13:55:57.272Z,25.96
2023-06-11T14:01:00.694Z,26.56
2023-06-11T14:06:04.785Z,26.07
2023-06-11T14:11:14.597Z,25.56
2023-06-11T14:16:18.267Z,25.73
2023-06-11T14:21:21.935Z,26.10
2023-06-11T14:26:27.410Z,25.65
2023-06-11T14:31:30.842Z,25.26
2023-06-11T14:36:34.178Z,24.87
2023-06-11T14:41:39.094Z,24.69
2023-06-11T14:46:42.517Z,24.35
2023-06-11T14:51:45.980Z,24.66
2023-06-11T14:56:50.735Z,25.18
2023-06-11T15:01:54.147Z,25.80
2023-06-11T15:06:57.562Z,25.77
2023-06-11T15:12:04.064Z,25.44
2023-06-11T15:17:07.408Z,25.54
2023-06-11T15:22:10.792Z,26.14
2023-06-11T15:27:18.547Z,26.49
2023-06-11T15:32:22.169Z,26.11
2023-06-11T15:37:25.575Z,26.41
2023-06-11T15:42:30.305Z,26.56
2023-06-11T15:47:34.260Z,25.89
2023-06-11T15:52:37.754Z,26.07
2023-06-11T15:57:42.543Z,26.27
2023-06-11T16:02:45.967Z,26.18
2023-06-11T16:07:49.356Z,26.26
2023-06-11T16:12:54.086Z,26.03
2023-06-11T16:17:57.452Z,26.12
2023-06-11T16:33:57.320Z,26.25
2023-06-11T16:39:21.025Z,26.28
2023-06-11T16:44:26.636Z,26.27
2023-06-11T16:49:30.173Z,25.61
2023-06-11T16:54:33.704Z,25.76
2023-06-11T16:59:38.421Z,25.41
2023-06-11T17:04:41.710Z,25.53
2023-06-11T17:09:45.234Z,25.04
2023-06-11T17:14:50.844Z,24.99
2023-06-11T17:19:56.249Z,24.60
2023-06-11T17:24:59.753Z,24.12
2023-06-11T17:30:05.008Z,24.32
2023-06-11T17:35:08.933Z,24.37
2023-06-11T17:40:16.440Z,24.35
2023-06-11T17:45:21.775Z,24.42
2023-06-11T17:55:48.744Z,24.35
2023-06-11T18:00:55.167Z,24.22
2023-06-11T18:05:58.678Z,24.32
2023-06-11T18:11:02.281Z,24.21
2023-06-11T18:16:07.421Z,23.99
2023-06-11T18:21:11.488Z,24.02
2023-06-11T18:26:14.967Z,23.79
2023-06-11T18:31:19.821Z,23.84
2023-06-11T18:36:23.127Z,23.74
2023-06-11T18:41:28.789Z,23.61
2023-06-11T18:46:37.115Z,23.59
2023-06-11T18:51:42.930Z,23.48
2023-06-11T18:56:46.602Z,23.44
2023-06-11T19:01:51.417Z,23.33
2023-06-11T19:06:55.437Z,23.36
2023-06-11T19:11:59.124Z,23.18
2023-06-11T19:17:04.076Z,23.14
2023-06-11T19:22:07.818Z,23.06
2023-06-11T19:27:11.611Z,22.93
2023-06-11T19:32:16.355Z,22.75
2023-06-11T19:37:19.733Z,22.69
2023-06-11T19:42:23.274Z,22.59
2023-06-11T19:47:27.996Z,22.58
2023-06-11T19:52:31.537Z,22.55
2023-06-11T19:57:34.950Z,22.59
2023-06-11T20:02:39.691Z,22.55
2023-06-11T20:07:43.010Z,22.53
2023-06-11T20:12:46.370Z,22.28
2023-06-11T20:17:51.072Z,22.14
2023-06-11T20:22:54.569Z,21.95
2023-06-11T20:27:57.872Z,21.91
2023-06-11T20:33:02.598Z,21.81
2023-06-11T20:38:06.156Z,21.71
2023-06-11T20:43:09.416Z,21.67
2023-06-11T20:48:14.310Z,21.50
2023-06-11T20:53:32.526Z,21.48
2023-06-11T20:58:37.607Z,21.31
2023-06-11T21:03:42.317Z,21.46
2023-06-11T21:08:45.955Z,21.56
2023-06-11T21:14:03.712Z,21.57
2023-06-11T21:19:13.723Z,21.34
2023-06-11T21:24:17.198Z,21.28
2023-06-11T21:29:20.889Z,21.03
2023-06-11T21:34:25.821Z,21.09
2023-06-11T21:39:29.122Z,20.91
2023-06-11T21:44:32.387Z,20.88
2023-06-11T21:49:37.293Z,21.00
2023-06-11T22:00:06.017Z,20.69
2023-06-11T22:05:13.623Z,20.70
2023-06-11T22:10:17.210Z,20.76
2023-06-11T22:15:20.624Z,20.54
2023-06-11T22:20:26.715Z,20.63
2023-06-11T22:25:30.072Z,20.35
2023-06-11T22:30:44.023Z,20.25
2023-06-11T22:35:57.470Z,20.17
2023-06-11T22:41:00.781Z,20.26
2023-06-11T22:46:04.145Z,20.29
2023-06-11T22:51:11.167Z,20.20
2023-06-11T22:56:14.846Z,20.40
2023-06-11T23:01:18.888Z,20.39
2023-06-11T23:06:23.602Z,20.39
2023-06-11T23:11:28.118Z,20.48
2023-06-11T23:16:32.175Z,20.35
2023-06-11T23:21:38.570Z,20.25
2023-06-11T23:26:45.361Z,20.26
2023-06-11T23:31:49.793Z,19.99
2023-06-11T23:36:54.521Z,19.77
2023-06-11T23:41:57.809Z,19.68
2023-06-11T23:47:01.378Z,19.72
2023-06-11T23:52:07.430Z,19.89
2023-06-11T23:57:11.808Z,20.02
